createdAt,value
2022-12-29T00:01:32.131Z,8.47
2022-12-29T00:03:59.665Z,8.38
2022-12-29T00:06:27.177Z,8.36
2022-12-29T00:08:54.481Z,8.28
2022-12-29T00:11:22.063Z,8.41
2022-12-29T00:13:50.159Z,8.07
2022-12-29T00:16:17.532Z,8.32
2022-12-29T00:18:45.796Z,8.12
2022-12-29T00:21:15.068Z,7.93
2022-12-29T00:23:42.562Z,8.20
2022-12-29T00:26:09.922Z,8.17
2022-12-29T00:28:37.350Z,8.08
2022-12-29T00:31:04.870Z,8.18
2022-12-29T00:33:32.621Z,8.09
2022-12-29T00:36:00.049Z,8.17
2022-12-29T00:38:27.642Z,8.27
2022-12-29T00:40:55.051Z,8.04
2022-12-29T00:43:22.548Z,8.01
2022-12-29T00:45:53.076Z,7.85
2022-12-29T00:48:20.417Z,7.92
2022-12-29T00:50:47.892Z,7.56
2022-12-29T00:53:18.132Z,7.49
2022-12-29T00:55:45.501Z,7.44
2022-12-29T00:58:12.906Z,7.68
2022-12-29T01:00:41.653Z,7.86
2022-12-29T01:03:09.138Z,7.98
2022-12-29T01:05:36.532Z,8.18
2022-12-29T01:08:04.031Z,7.80
2022-12-29T01:10:31.352Z,7.98
2022-12-29T01:12:58.802Z,7.27
2022-12-29T01:15:26.302Z,7.69
2022-12-29T01:17:55.127Z,8.12
2022-12-29T01:20:22.512Z,8.31
2022-12-29T01:22:49.988Z,7.99
2022-12-29T01:25:17.380Z,7.99
2022-12-29T01:27:45.818Z,8.08
2022-12-29T01:30:13.479Z,8.15
2022-12-29T01:32:41.589Z,8.27
2022-12-29T01:35:09.022Z,8.31
2022-12-29T01:37:36.703Z,8.46
2022-12-29T01:40:04.158Z,8.12
2022-12-29T01:42:31.643Z,8.03
2022-12-29T01:45:00.008Z,8.37
2022-12-29T01:47:27.553Z,8.13
2022-12-29T01:49:55.042Z,8.12
2022-12-29T01:52:24.021Z,8.13
2022-12-29T01:54:51.358Z,8.42
2022-12-29T01:57:18.856Z,8.47
2022-12-29T01:59:46.329Z,8.45
2022-12-29T02:02:16.032Z,8.37
2022-12-29T02:04:43.478Z,8.21
2022-12-29T02:07:11.053Z,8.50
2022-12-29T02:09:40.025Z,8.32
2022-12-29T02:12:07.587Z,8.15
2022-12-29T02:14:35.035Z,8.51
2022-12-29T02:17:04.069Z,8.83
2022-12-29T02:19:31.488Z,8.46
2022-12-29T02:21:58.970Z,8.66
2022-12-29T02:24:27.075Z,8.50
2022-12-29T02:26:54.657Z,7.98
2022-12-29T02:29:22.049Z,8.15
2022-12-29T02:31:49.570Z,8.37
2022-12-29T02:34:17.214Z,7.91
2022-12-29T02:36:47.758Z,8.03
2022-12-29T02:39:15.065Z,8.39
2022-12-29T02:41:42.435Z,8.66
2022-12-29T02:44:09.776Z,8.72
2022-12-29T02:46:37.080Z,8.80
2022-12-29T02:49:04.441Z,8.46
2022-12-29T02:51:31.767Z,8.33
2022-12-29T02:53:59.251Z,8.57
2022-12-29T02:56:26.779Z,8.20
2022-12-29T02:58:54.242Z,8.67
2022-12-29T03:01:22.045Z,8.35
2022-12-29T03:03:49.610Z,8.25
2022-12-29T03:06:16.955Z,8.01
2022-12-29T03:08:45.495Z,7.91
2022-12-29T03:11:12.893Z,8.02
2022-12-29T03:13:40.338Z,7.68
2022-12-29T03:16:07.723Z,8.13
2022-12-29T03:18:35.159Z,8.04
2022-12-29T03:21:02.634Z,8.15
2022-12-29T03:23:30.319Z,8.33
2022-12-29T03:25:57.642Z,8.60
2022-12-29T03:28:25.141Z,8.63
2022-12-29T03:30:52.906Z,8.85
2022-12-29T03:33:20.349Z,8.86
2022-12-29T03:35:47.769Z,8.83
2022-12-29T03:38:15.972Z,8.75
2022-12-29T03:40:45.908Z,8.51
2022-12-29T03:43:13.316Z,8.34
2022-12-29T03:45:41.916Z,8.51
2022-12-29T03:48:09.299Z,8.68
2022-12-29T03:50:36.643Z,8.55
2022-12-29T03:53:04.090Z,8.91
2022-12-29T03:55:31.527Z,8.74
2022-12-29T03:57:58.925Z,8.86
2022-12-29T04:00:26.408Z,8.83
2022-12-29T04:02:54.200Z,8.81
2022-12-29T04:05:21.822Z,8.93
2022-12-29T04:07:49.171Z,9.06
2022-12-29T04:10:16.642Z,8.76
2022-12-29T04:12:44.038Z,8.80
2022-12-29T04:15:11.961Z,8.81
2022-12-29T04:17:39.366Z,8.85
2022-12-29T04:20:07.030Z,8.62
2022-12-29T04:22:38.951Z,8.84
2022-12-29T04:25:06.520Z,8.59
2022-12-29T04:27:33.979Z,8.75
2022-12-29T04:30:02.972Z,8.88
2022-12-29T04:32:31.653Z,8.87
2022-12-29T04:34:59.134Z,8.85
2022-12-29T04:37:26.770Z,8.72
2022-12-29T04:39:54.134Z,8.85
2022-12-29T04:42:21.471Z,8.88
2022-12-29T04:44:48.844Z,8.89
2022-12-29T04:47:16.231Z,8.66
2022-12-29T04:49:43.552Z,8.71
2022-12-29T04:52:10.912Z,8.57
2022-12-29T04:54:38.327Z,8.56
2022-12-29T04:57:05.732Z,8.41
2022-12-29T04:59:33.191Z,8.61
2022-12-29T05:02:00.776Z,8.87
2022-12-29T05:04:28.440Z,8.95
2022-12-29T05:06:55.699Z,8.75
2022-12-29T05:09:23.065Z,8.67
2022-12-29T05:11:50.496Z,9.02
2022-12-29T05:14:18.866Z,8.97
2022-12-29T05:16:46.343Z,8.96
2022-12-29T05:19:13.817Z,9.11
2022-12-29T05:21:42.191Z,8.80
2022-12-29T05:24:09.635Z,8.58
2022-12-29T05:26:36.997Z,8.30
2022-12-29T05:29:04.541Z,7.84
2022-12-29T05:31:32.301Z,7.87
2022-12-29T05:33:59.914Z,8.02
2022-12-29T05:36:27.242Z,8.22
2022-12-29T05:38:54.717Z,8.17
2022-12-29T05:41:22.087Z,8.43
2022-12-29T05:43:49.541Z,8.47
2022-12-29T05:46:16.995Z,8.77
2022-12-29T05:48:47.934Z,8.64
2022-12-29T05:51:15.422Z,8.48
2022-12-29T05:53:42.735Z,8.91
2022-12-29T05:56:10.200Z,8.98
2022-12-29T05:58:39.705Z,9.09
2022-12-29T06:01:10.874Z,8.63
2022-12-29T06:03:40.717Z,8.89
2022-12-29T06:06:12.216Z,9.29
2022-12-29T06:08:39.596Z,9.53
2022-12-29T06:11:07.140Z,9.82
2022-12-29T06:13:34.903Z,9.86
2022-12-29T06:16:02.489Z,9.81
2022-12-29T06:18:30.069Z,9.63
2022-12-29T06:20:57.815Z,9.56
2022-12-29T06:23:25.384Z,9.46
2022-12-29T06:25:52.929Z,8.84
2022-12-29T06:28:20.604Z,8.93
2022-12-29T06:30:47.953Z,9.07
2022-12-29T06:33:15.314Z,8.85
2022-12-29T06:35:43.118Z,8.56
2022-12-29T06:38:10.783Z,8.57
2022-12-29T06:40:38.213Z,8.67
2022-12-29T06:43:06.891Z,8.67
2022-12-29T06:45:35.972Z,8.58
2022-12-29T06:48:03.378Z,8.64
2022-12-29T06:50:31.004Z,8.53
2022-12-29T06:52:58.661Z,8.94
2022-12-29T06:55:26.031Z,8.87
2022-12-29T06:57:53.473Z,8.55
2022-12-29T07:00:23.183Z,8.37
2022-12-29T07:02:50.989Z,8.30
2022-12-29T07:05:18.599Z,8.51
2022-12-29T07:07:48.886Z,8.45
2022-12-29T07:10:16.431Z,8.58
2022-12-29T07:12:44.794Z,8.59
2022-12-29T07:15:13.828Z,8.65
2022-12-29T07:17:41.486Z,8.64
2022-12-29T07:20:08.903Z,8.53
2022-12-29T07:22:38.833Z,8.50
2022-12-29T07:25:08.307Z,8.61
2022-12-29T07:27:35.796Z,8.74
2022-12-29T07:30:03.878Z,8.86
2022-12-29T07:32:31.349Z,9.01
2022-12-29T07:34:58.769Z,8.97
2022-12-29T07:37:26.215Z,8.92
2022-12-29T07:39:53.812Z,8.91
2022-12-29T07:42:21.183Z,8.78
2022-12-29T07:44:48.647Z,8.89
2022-12-29T07:47:19.778Z,8.44
2022-12-29T07:49:49.341Z,8.61
2022-12-29T07:52:16.935Z,8.60
2022-12-29T07:54:46.877Z,8.50
2022-12-29T07:57:14.442Z,8.74
2022-12-29T07:59:41.897Z,8.33
2022-12-29T08:02:12.020Z,8.34
2022-12-29T08:04:40.187Z,8.25
2022-12-29T08:07:10.696Z,8.35
2022-12-29T08:09:38.813Z,8.43
2022-12-29T08:12:06.252Z,8.46
2022-12-29T08:14:33.632Z,8.51
2022-12-29T08:17:00.888Z,8.47
2022-12-29T08:19:28.347Z,8.75
2022-12-29T08:21:59.807Z,8.83
2022-12-29T08:24:27.264Z,9.21
2022-12-29T08:26:54.599Z,9.73
2022-12-29T08:29:22.080Z,9.77
2022-12-29T08:31:49.533Z,9.87
2022-12-29T08:34:19.848Z,9.79
2022-12-29T08:36:47.180Z,9.87
2022-12-29T08:39:16.661Z,9.72
2022-12-29T08:41:44.094Z,10.11
2022-12-29T08:44:11.536Z,10.39
2022-12-29T08:46:40.917Z,10.59
2022-12-29T08:49:08.294Z,10.42
2022-12-29T08:51:35.663Z,10.44
2022-12-29T08:54:03.128Z,10.03
2022-12-29T08:56:30.482Z,9.88
2022-12-29T08:58:57.917Z,10.29
2022-12-29T09:01:25.639Z,10.27
2022-12-29T09:06:41.008Z,9.70
2022-12-29T09:09:08.439Z,9.75
2022-12-29T09:11:37.797Z,10.03
2022-12-29T09:14:05.391Z,9.72
2022-12-29T09:16:34.747Z,9.35
2022-12-29T09:19:02.515Z,9.35
2022-12-29T09:21:29.943Z,9.12
2022-12-29T09:23:57.500Z,9.29
2022-12-29T09:26:25.189Z,9.23
2022-12-29T09:28:52.675Z,9.68
2022-12-29T09:31:20.157Z,9.70
2022-12-29T09:33:47.873Z,9.46
2022-12-29T09:36:15.416Z,9.50
2022-12-29T09:38:42.972Z,9.68
2022-12-29T09:41:10.763Z,9.69
2022-12-29T09:43:38.193Z,9.81
2022-12-29T09:46:05.641Z,10.32
2022-12-29T09:48:33.331Z,10.25
2022-12-29T09:51:00.796Z,9.69
2022-12-29T09:53:28.374Z,9.54
2022-12-29T09:55:55.798Z,9.43
2022-12-29T09:58:23.185Z,9.69
2022-12-29T10:00:55.442Z,9.78
2022-12-29T10:03:23.403Z,10.25
2022-12-29T10:05:51.108Z,10.18
2022-12-29T10:08:18.530Z,10.58
2022-12-29T10:10:47.792Z,10.62
2022-12-29T10:13:15.393Z,10.43
2022-12-29T10:15:42.787Z,10.64
2022-12-29T10:18:10.224Z,10.52
2022-12-29T10:20:37.703Z,10.00
2022-12-29T10:23:06.709Z,10.31
2022-12-29T10:25:34.137Z,10.24
2022-12-29T10:28:01.484Z,10.38
2022-12-29T10:30:28.961Z,10.26
2022-12-29T10:32:56.489Z,9.66
2022-12-29T10:35:24.170Z,9.94
2022-12-29T10:37:51.854Z,9.48
2022-12-29T10:40:19.620Z,9.91
2022-12-29T10:42:47.269Z,9.65
2022-12-29T10:45:15.670Z,9.80
2022-12-29T10:47:43.225Z,9.92
2022-12-29T10:50:10.816Z,10.14
2022-12-29T10:52:38.248Z,10.31
2022-12-29T10:55:06.749Z,10.46
2022-12-29T10:57:34.188Z,10.63
2022-12-29T11:00:01.563Z,11.00
2022-12-29T11:02:28.968Z,11.08
2022-12-29T11:04:56.696Z,11.32
2022-12-29T11:07:27.525Z,10.65
2022-12-29T11:09:55.077Z,10.90
2022-12-29T11:12:22.533Z,11.10
2022-12-29T11:14:50.013Z,10.99
2022-12-29T11:17:17.663Z,11.08
2022-12-29T11:19:45.133Z,11.18
2022-12-29T11:22:12.880Z,11.33
2022-12-29T11:24:40.532Z,11.53
2022-12-29T11:27:07.967Z,11.91
2022-12-29T11:29:36.653Z,12.13
2022-12-29T11:32:04.266Z,12.36
2022-12-29T11:34:33.517Z,12.22
2022-12-29T11:37:00.969Z,11.76
2022-12-29T11:39:28.436Z,11.88
2022-12-29T11:41:55.988Z,11.56
2022-12-29T11:44:23.425Z,11.76
2022-12-29T11:46:53.687Z,12.00
2022-12-29T11:49:21.225Z,11.87
2022-12-29T11:51:48.697Z,11.51
2022-12-29T11:54:17.686Z,11.67
2022-12-29T11:56:45.061Z,11.75
2022-12-29T11:59:12.518Z,11.60
2022-12-29T12:01:43.652Z,11.85
2022-12-29T12:04:11.331Z,11.52
2022-12-29T12:06:38.939Z,11.01
2022-12-29T12:09:06.422Z,10.61
2022-12-29T12:11:33.971Z,10.17
2022-12-29T12:14:01.753Z,9.83
2022-12-29T12:16:31.736Z,9.48
2022-12-29T12:18:59.316Z,9.14
2022-12-29T12:21:26.773Z,8.89
2022-12-29T12:23:54.477Z,8.98
2022-12-29T12:26:21.842Z,8.86
2022-12-29T12:28:49.461Z,8.65
2022-12-29T12:31:17.224Z,8.55
2022-12-29T12:33:44.582Z,8.29
2022-12-29T12:36:12.045Z,8.23
2022-12-29T12:38:42.664Z,8.49
2022-12-29T12:41:10.051Z,8.26
2022-12-29T12:43:37.789Z,8.30
2022-12-29T12:46:05.213Z,8.24
2022-12-29T12:48:32.641Z,8.54
2022-12-29T12:51:00.102Z,8.46
2022-12-29T12:53:27.860Z,8.81
2022-12-29T12:55:55.390Z,8.64
2022-12-29T12:58:22.756Z,9.34
2022-12-29T13:00:50.239Z,9.49
2022-12-29T13:03:17.722Z,9.58
2022-12-29T13:05:45.516Z,9.54
2022-12-29T13:08:13.054Z,9.53
2022-12-29T13:10:40.444Z,9.60
2022-12-29T13:13:08.221Z,9.30
2022-12-29T13:15:35.925Z,9.49
2022-12-29T13:18:03.645Z,9.64
2022-12-29T13:20:31.123Z,9.35
2022-12-29T13:22:58.570Z,9.11
2022-12-29T13:25:26.315Z,9.44
2022-12-29T13:27:53.857Z,9.46
2022-12-29T13:30:21.684Z,9.63
2022-12-29T13:32:52.641Z,9.59
2022-12-29T13:35:20.162Z,9.83
2022-12-29T13:37:47.730Z,9.96
2022-12-29T13:40:17.624Z,10.06
2022-12-29T13:42:45.177Z,10.20
2022-12-29T13:45:12.729Z,10.09
2022-12-29T13:47:40.466Z,9.99
2022-12-29T13:50:08.148Z,10.05
2022-12-29T13:52:35.716Z,10.24
2022-12-29T13:55:03.314Z,10.31
2022-12-29T13:57:30.900Z,10.53
2022-12-29T14:00:01.598Z,10.63
2022-12-29T14:02:29.453Z,10.71
2022-12-29T14:04:56.916Z,11.05
2022-12-29T14:07:24.402Z,11.17
2022-12-29T14:09:51.837Z,11.36
2022-12-29T14:12:19.391Z,11.21
2022-12-29T14:14:46.836Z,11.15
2022-12-29T14:17:15.230Z,11.19
2022-12-29T14:19:43.085Z,11.17
2022-12-29T14:22:13.639Z,10.92
2022-12-29T14:24:41.061Z,11.08
2022-12-29T14:27:08.468Z,10.96
2022-12-29T14:29:35.906Z,10.92
2022-12-29T14:32:03.373Z,11.37
2022-12-29T14:34:31.021Z,11.50
2022-12-29T14:37:02.781Z,11.52
2022-12-29T14:39:30.514Z,11.62
2022-12-29T14:41:57.952Z,11.67
2022-12-29T14:44:25.433Z,11.60
2022-12-29T14:46:54.662Z,11.54
2022-12-29T14:49:22.320Z,11.45
2022-12-29T14:51:49.734Z,11.56
2022-12-29T14:54:17.168Z,11.63
2022-12-29T14:56:44.740Z,11.68
2022-12-29T14:59:15.580Z,11.42
2022-12-29T15:01:43.275Z,11.56
2022-12-29T15:04:10.966Z,11.59
2022-12-29T15:06:40.605Z,11.47
2022-12-29T15:09:08.068Z,11.23
2022-12-29T15:11:35.402Z,11.19
2022-12-29T15:14:02.743Z,11.41
2022-12-29T15:16:30.352Z,11.32
2022-12-29T15:18:58.168Z,11.38
2022-12-29T15:21:25.732Z,11.45
2022-12-29T15:23:53.111Z,11.43
2022-12-29T15:26:20.716Z,11.54
2022-12-29T15:28:48.126Z,11.57
2022-12-29T15:31:15.776Z,11.47
2022-12-29T15:33:43.268Z,11.06
2022-12-29T15:36:10.824Z,11.03
2022-12-29T15:38:40.557Z,10.92
2022-12-29T15:41:08.206Z,10.37
2022-12-29T15:43:35.712Z,10.14
2022-12-29T15:46:06.656Z,10.04
2022-12-29T15:48:34.256Z,9.72
2022-12-29T15:51:01.701Z,9.64
2022-12-29T15:53:29.177Z,9.83
2022-12-29T15:56:02.885Z,9.90
2022-12-29T15:58:31.566Z,10.12
2022-12-29T16:00:59.147Z,9.94
2022-12-29T16:03:26.768Z,10.18
2022-12-29T16:05:55.567Z,10.35
2022-12-29T16:08:23.060Z,9.96
2022-12-29T16:10:50.520Z,10.25
2022-12-29T16:13:18.301Z,10.53
2022-12-29T16:15:45.740Z,10.40
2022-12-29T16:18:13.142Z,10.47
2022-12-29T16:20:40.531Z,10.32
2022-12-29T16:23:07.906Z,10.56
2022-12-29T16:25:35.438Z,10.76
2022-12-29T16:28:02.806Z,10.88
2022-12-29T16:30:33.893Z,11.00
2022-12-29T16:33:01.911Z,11.07
2022-12-29T16:35:29.389Z,11.11
2022-12-29T16:37:56.907Z,11.18
2022-12-29T16:40:28.461Z,11.12
2022-12-29T16:42:56.073Z,11.12
2022-12-29T16:45:23.536Z,11.09
2022-12-29T16:47:51.199Z,10.94
2022-12-29T16:50:22.282Z,11.05
2022-12-29T16:52:55.478Z,11.16
2022-12-29T16:55:22.889Z,10.70
2022-12-29T16:57:50.326Z,10.44
2022-12-29T17:00:21.489Z,10.19
2022-12-29T17:02:48.943Z,10.18
2022-12-29T17:05:16.402Z,10.01
2022-12-29T17:07:43.821Z,10.18
2022-12-29T17:10:11.333Z,9.93
2022-12-29T17:12:38.759Z,9.47
2022-12-29T17:15:06.540Z,9.24
2022-12-29T17:17:33.998Z,9.39
2022-12-29T17:20:01.338Z,9.21
2022-12-29T17:22:28.926Z,8.96
2022-12-29T17:24:56.459Z,8.22
2022-12-29T17:27:23.940Z,8.22
2022-12-29T17:29:51.411Z,8.02
2022-12-29T17:32:19.471Z,8.19
2022-12-29T17:34:46.805Z,8.16
2022-12-29T17:37:14.185Z,7.96
2022-12-29T17:39:41.601Z,8.04
2022-12-29T17:42:09.087Z,8.27
2022-12-29T17:44:37.437Z,8.44
2022-12-29T17:47:04.894Z,8.14
2022-12-29T17:49:32.404Z,7.94
2022-12-29T17:52:00.041Z,8.18
2022-12-29T17:54:27.383Z,7.62
2022-12-29T17:56:54.868Z,8.15
2022-12-29T17:59:22.982Z,8.11
2022-12-29T18:01:50.533Z,7.77
2022-12-29T18:04:18.045Z,7.79
2022-12-29T18:06:46.431Z,7.92
2022-12-29T18:09:13.876Z,7.96
2022-12-29T18:11:41.225Z,7.67
2022-12-29T18:14:08.687Z,7.77
2022-12-29T18:16:36.457Z,7.95
2022-12-29T18:19:04.024Z,7.76
2022-12-29T18:21:31.451Z,7.50
2022-12-29T18:24:00.534Z,7.54
2022-12-29T18:26:28.780Z,7.81
2022-12-29T18:28:56.438Z,6.91
2022-12-29T18:31:23.901Z,7.48
2022-12-29T18:33:51.535Z,7.62
2022-12-29T18:36:21.536Z,7.84
2022-12-29T18:38:49.477Z,8.04
2022-12-29T18:41:17.088Z,8.19
2022-12-29T18:43:47.704Z,8.32
2022-12-29T18:46:22.124Z,8.27
2022-12-29T18:48:50.658Z,8.27
2022-12-29T18:51:18.283Z,8.45
2022-12-29T18:53:45.725Z,8.41
2022-12-29T18:56:15.446Z,8.41
2022-12-29T18:58:42.906Z,8.65
2022-12-29T19:01:10.483Z,9.00
2022-12-29T19:03:38.468Z,9.40
2022-12-29T19:06:05.915Z,9.50
2022-12-29T19:08:33.365Z,9.70
2022-12-29T19:11:00.676Z,9.81
2022-12-29T19:13:28.153Z,9.40
2022-12-29T19:15:55.576Z,9.54
2022-12-29T19:21:12.501Z,8.95
2022-12-29T19:23:39.981Z,8.70
2022-12-29T19:26:07.565Z,8.24
2022-12-29T19:28:38.505Z,8.61
2022-12-29T19:31:05.891Z,8.16
2022-12-29T19:33:33.329Z,7.94
2022-12-29T19:36:00.888Z,8.11
2022-12-29T19:38:28.264Z,8.49
2022-12-29T19:40:55.817Z,8.67
2022-12-29T19:43:23.322Z,8.84
2022-12-29T19:45:51.225Z,8.99
2022-12-29T19:48:18.849Z,9.25
2022-12-29T19:50:46.301Z,9.41
2022-12-29T19:53:14.008Z,9.39
2022-12-29T19:55:41.462Z,9.56
2022-12-29T19:58:09.452Z,9.37
2022-12-29T20:00:37.032Z,9.53
2022-12-29T20:03:04.493Z,9.48
2022-12-29T20:05:32.130Z,9.52
2022-12-29T20:07:59.620Z,9.67
2022-12-29T20:10:27.351Z,9.71
2022-12-29T20:12:54.813Z,9.45
2022-12-29T20:15:22.296Z,9.46
2022-12-29T20:20:37.282Z,9.53
2022-12-29T20:23:05.341Z,9.30
2022-12-29T20:25:48.083Z,9.27
2022-12-29T20:28:19.406Z,9.48
2022-12-29T20:30:46.733Z,9.57
2022-12-29T20:33:14.308Z,8.85
2022-12-29T20:35:42.380Z,9.14
2022-12-29T20:38:09.860Z,8.70
2022-12-29T20:40:44.256Z,8.70
2022-12-29T20:43:16.394Z,8.65
2022-12-29T20:45:44.050Z,8.33
2022-12-29T20:48:11.641Z,8.41
2022-12-29T20:50:40.380Z,8.83
2022-12-29T20:53:07.929Z,8.64
2022-12-29T20:55:35.333Z,8.88
2022-12-29T21:00:55.448Z,8.70
2022-12-29T21:03:23.208Z,8.94
2022-12-29T21:05:50.826Z,9.30
2022-12-29T21:08:18.367Z,8.99
2022-12-29T21:10:48.461Z,8.57
2022-12-29T21:13:15.886Z,8.64
2022-12-29T21:15:43.401Z,8.80
2022-12-29T21:18:13.308Z,9.00
2022-12-29T21:20:40.796Z,8.61
2022-12-29T21:23:08.241Z,8.72
2022-12-29T21:25:37.524Z,8.67
2022-12-29T21:28:05.076Z,8.59
2022-12-29T21:30:32.703Z,8.27
2022-12-29T21:33:00.424Z,8.13
2022-12-29T21:35:27.875Z,8.76
2022-12-29T21:37:55.318Z,8.83
2022-12-29T21:40:25.350Z,8.83
2022-12-29T21:42:52.976Z,9.13
2022-12-29T21:45:21.175Z,9.37
2022-12-29T21:47:48.766Z,9.64
2022-12-29T21:50:16.313Z,9.74
2022-12-29T21:52:45.301Z,9.94
2022-12-29T21:55:12.732Z,9.78
2022-12-29T21:57:40.326Z,9.52
2022-12-29T22:00:10.351Z,9.42
2022-12-29T22:02:37.943Z,9.35
2022-12-29T22:05:05.478Z,9.31
2022-12-29T22:07:32.919Z,9.18
2022-12-29T22:10:00.404Z,8.91
2022-12-29T22:12:30.663Z,8.84
2022-12-29T22:14:58.173Z,8.77
2022-12-29T22:17:29.010Z,8.61
2022-12-29T22:19:58.309Z,8.47
2022-12-29T22:22:25.774Z,8.68
2022-12-29T22:24:53.233Z,8.35
2022-12-29T22:27:22.302Z,8.29
2022-12-29T22:29:49.773Z,8.27
2022-12-29T22:32:17.109Z,8.01
2022-12-29T22:34:44.697Z,8.29
2022-12-29T22:37:12.123Z,8.54
2022-12-29T22:39:39.505Z,8.78
2022-12-29T22:42:11.893Z,8.64
2022-12-29T22:44:39.334Z,8.61
2022-12-29T22:47:06.795Z,8.88
2022-12-29T22:49:56.291Z,9.32
2022-12-29T22:52:42.531Z,9.63
2022-12-29T22:55:29.995Z,9.91
2022-12-29T22:57:57.314Z,10.09
2022-12-29T23:00:46.318Z,9.47
2022-12-29T23:03:13.832Z,9.01
2022-12-29T23:05:41.525Z,8.94
2022-12-29T23:08:08.842Z,8.77
2022-12-29T23:10:36.238Z,9.00
2022-12-29T23:13:03.719Z,8.59
2022-12-29T23:15:33.305Z,8.58
2022-12-29T23:18:00.618Z,8.69
2022-12-29T23:20:28.116Z,8.39
2022-12-29T23:22:59.267Z,8.07
2022-12-29T23:25:26.644Z,8.35
2022-12-29T23:27:54.083Z,7.88
2022-12-29T23:30:25.216Z,7.65
2022-12-29T23:32:52.703Z,8.15
2022-12-29T23:35:20.189Z,8.57
2022-12-29T23:37:50.253Z,8.78
2022-12-29T23:40:17.621Z,8.71
2022-12-29T23:42:45.061Z,9.01
2022-12-29T23:45:13.239Z,9.01
2022-12-29T23:47:40.694Z,8.46
2022-12-29T23:50:08.270Z,8.60
2022-12-29T23:52:37.230Z,8.71
2022-12-29T23:55:04.821Z,8.94
2022-12-29T23:57:32.317Z,8.96
